Time;durP1;ratioP1;P1;durP2;ratioP2;P2;SDS_P1;SDS_P2;PMS_P1;PMS_P2;Temp;Humidity;BMP_temperature;BMP_pressure;BME280_temperature;BME280_humidity;BME280_pressure;Samples;Min_cycle;Max_cycle;Signal;HPM_P1;HPM_P2
2021/03/18 00:01:17;;;;;;;;;;;6.20;94.40;;;;;;5084220;28;19925;-71
2021/03/18 00:03:47;;;;;;;;;;;6.20;94.50;;;;;;5090894;28;19924;-70
2021/03/18 00:06:13;;;;;;;;;;;6.20;94.50;;;;;;5092662;28;19939;-71
2021/03/18 00:08:39;;;;;;;;;;;6.20;94.50;;;;;;5093566;28;19924;-70
2021/03/18 00:11:08;;;;;;;;;;;6.20;94.60;;;;;;5092582;28;19930;-71
2021/03/18 00:13:35;;;;;;;;;;;6.10;94.70;;;;;;5095091;28;19924;-70
2021/03/18 00:16:02;;;;;;;;;;;6.10;94.80;;;;;;5088123;28;19935;-69
2021/03/18 00:18:29;;;;;;;;;;;6.10;94.90;;;;;;5092586;28;19934;-69
2021/03/18 00:20:56;;;;;;;;;;;6.10;94.90;;;;;;5094875;28;20592;-70
2021/03/18 00:23:22;;;;;;;;;;;6.10;94.90;;;;;;5093965;28;19924;-69
2021/03/18 00:25:48;;;;;;;;;;;6.20;94.90;;;;;;5095015;28;20011;-71
2021/03/18 00:28:15;;;;;;;;;;;6.20;94.90;;;;;;5094008;28;19980;-70
2021/03/18 00:30:42;;;;;;;;;;;6.20;94.70;;;;;;5094700;28;19984;-70
2021/03/18 00:33:08;;;;;;;;;;;6.10;94.70;;;;;;5086689;28;19932;-71
2021/03/18 00:35:34;;;;;;;;;;;6.10;94.90;;;;;;5091718;28;19935;-70
2021/03/18 00:38:01;;;;;;;;;;;6.10;94.90;;;;;;5089406;28;19924;-70
2021/03/18 00:40:29;;;;;;;;;;;6.10;95.10;;;;;;5086869;28;19932;-70
2021/03/18 00:42:56;;;;;;;;;;;6.10;95.00;;;;;;5093987;28;19963;-70
2021/03/18 00:45:25;;;;;;;;;;;6.00;94.90;;;;;;5093762;28;19934;-70
2021/03/18 00:47:51;;;;;;;;;;;6.00;94.90;;;;;;5094137;28;20258;-70
2021/03/18 00:50:23;;;;;;;;;;;6.00;94.90;;;;;;5093575;28;19931;-70
2021/03/18 00:52:49;;;;;;;;;;;5.90;94.90;;;;;;5083348;28;19928;-70
2021/03/18 00:55:16;;;;;;;;;;;5.90;95.00;;;;;;5090216;28;19924;-70
2021/03/18 00:57:42;;;;;;;;;;;5.90;95.10;;;;;;5094110;28;20350;-70
2021/03/18 01:00:11;;;;;;;;;;;5.90;94.90;;;;;;5093521;28;20295;-70
2021/03/18 01:02:38;;;;;;;;;;;5.90;95.10;;;;;;5093860;28;19935;-70
2021/03/18 01:05:06;;;;;;;;;;;5.90;95.10;;;;;;5093758;28;19924;-71
2021/03/18 01:07:33;;;;;;;;;;;6.00;95.00;;;;;;5094157;28;19924;-71
2021/03/18 01:09:59;;;;;;;;;;;6.00;94.90;;;;;;5093866;28;19924;-71
2021/03/18 01:12:25;;;;;;;;;;;6.00;95.00;;;;;;5092831;28;20320;-71
2021/03/18 01:14:51;;;;;;;;;;;6.00;95.00;;;;;;5093537;28;19924;-70
2021/03/18 01:17:18;;;;;;;;;;;6.00;95.00;;;;;;5093396;28;19924;-71
2021/03/18 01:19:45;;;;;;;;;;;6.00;95.00;;;;;;5093720;28;19924;-70
2021/03/18 01:22:11;;;;;;;;;;;6.00;95.00;;;;;;5082769;28;19924;-70
2021/03/18 01:24:37;;;;;;;;;;;6.00;94.90;;;;;;5093518;28;19924;-71
2021/03/18 01:27:03;;;;;;;;;;;6.00;95.00;;;;;;5093446;28;19928;-71
2021/03/18 01:29:30;;;;;;;;;;;6.00;95.10;;;;;;5093600;28;20416;-71
2021/03/18 01:31:56;;;;;;;;;;;5.90;95.00;;;;;;5091387;28;19924;-70
2021/03/18 01:34:22;;;;;;;;;;;5.90;95.20;;;;;;5082841;28;19938;-71
2021/03/18 01:36:49;;;;;;;;;;;5.90;95.00;;;;;;5093157;28;19934;-71
2021/03/18 01:39:16;;;;;;;;;;;5.90;94.90;;;;;;5093031;28;19935;-71
2021/03/18 01:41:42;;;;;;;;;;;5.90;95.00;;;;;;5092465;28;19934;-71
2021/03/18 01:44:08;;;;;;;;;;;5.90;95.10;;;;;;5092991;28;19934;-71
2021/03/18 01:46:35;;;;;;;;;;;5.90;95.00;;;;;;5093425;28;19968;-71
2021/03/18 01:49:01;;;;;;;;;;;5.90;94.90;;;;;;5092612;28;19928;-71
2021/03/18 01:51:27;;;;;;;;;;;5.90;95.00;;;;;;5092772;28;19934;-71
2021/03/18 01:53:58;;;;;;;;;;;5.90;94.90;;;;;;5093357;28;19972;-71
2021/03/18 01:56:24;;;;;;;;;;;5.90;94.90;;;;;;5092781;28;20027;-71
2021/03/18 01:58:51;;;;;;;;;;;5.90;95.20;;;;;;5093187;28;19924;-71
2021/03/18 02:01:19;;;;;;;;;;;5.80;95.20;;;;;;5083804;28;19981;-72
2021/03/18 02:03:46;;;;;;;;;;;5.90;95.30;;;;;;5091082;28;19935;-71
2021/03/18 02:06:12;;;;;;;;;;;5.90;95.30;;;;;;5092546;28;19924;-71
2021/03/18 02:08:38;;;;;;;;;;;5.90;95.20;;;;;;5092702;28;20312;-71
2021/03/18 02:11:06;;;;;;;;;;;5.90;95.10;;;;;;5093062;28;19924;-71
2021/03/18 02:13:32;;;;;;;;;;;5.90;95.10;;;;;;5092297;28;20649;-71
2021/03/18 02:16:00;;;;;;;;;;;5.90;95.20;;;;;;5086336;28;19924;-71
2021/03/18 02:18:30;;;;;;;;;;;6.00;95.20;;;;;;5091503;28;19932;-71
2021/03/18 02:21:12;;;;;;;;;;;6.00;95.00;;;;;;5091815;28;20315;-71
2021/03/18 02:23:53;;;;;;;;;;;6.00;95.00;;;;;;5085339;28;19930;-71
2021/03/18 02:26:29;;;;;;;;;;;6.00;94.90;;;;;;5082450;28;20295;-71
2021/03/18 02:29:06;;;;;;;;;;;6.00;95.00;;;;;;5092007;28;19928;-71
2021/03/18 02:31:36;;;;;;;;;;;6.00;95.10;;;;;;5092482;28;19961;-71
2021/03/18 02:34:28;;;;;;;;;;;6.10;95.00;;;;;;5085267;28;19924;-71
2021/03/18 02:37:02;;;;;;;;;;;6.10;95.00;;;;;;5081685;28;20420;-71
2021/03/18 02:39:32;;;;;;;;;;;6.10;95.00;;;;;;5089121;28;19924;-71
2021/03/18 02:42:00;;;;;;;;;;;6.10;94.70;;;;;;5091605;28;19934;-71
2021/03/18 02:44:27;;;;;;;;;;;6.10;94.70;;;;;;5090904;28;19954;-71
2021/03/18 02:46:57;;;;;;;;;;;6.10;94.70;;;;;;5091922;28;19928;-71
2021/03/18 02:49:24;;;;;;;;;;;6.10;94.80;;;;;;5092387;28;19924;-71
2021/03/18 02:51:51;;;;;;;;;;;6.00;94.50;;;;;;5092135;28;19932;-71
2021/03/18 02:54:19;;;;;;;;;;;6.10;94.60;;;;;;5087263;28;19934;-71
2021/03/18 02:56:47;;;;;;;;;;;6.10;94.70;;;;;;5095571;28;20334;-71
2021/03/18 02:59:15;;;;;;;;;;;6.10;94.90;;;;;;5096292;28;19928;-71
2021/03/18 03:01:42;;;;;;;;;;;6.00;95.00;;;;;;5096322;28;19948;-71
2021/03/18 03:04:09;;;;;;;;;;;6.00;94.90;;;;;;5096120;28;19935;-72
2021/03/18 03:06:36;;;;;;;;;;;6.00;95.00;;;;;;5095829;28;19932;-71
2021/03/18 03:09:06;;;;;;;;;;;6.00;95.10;;;;;;5096245;28;19934;-71
2021/03/18 03:11:33;;;;;;;;;;;6.00;95.10;;;;;;5095365;28;19930;-71
2021/03/18 03:14:00;;;;;;;;;;;6.00;95.00;;;;;;5086641;28;20368;-71
2021/03/18 03:16:26;;;;;;;;;;;6.00;94.70;;;;;;5096104;28;20035;-71
2021/03/18 03:18:54;;;;;;;;;;;6.00;94.70;;;;;;5095957;28;20316;-71
2021/03/18 03:21:22;;;;;;;;;;;6.00;94.90;;;;;;5095402;28;19924;-71
2021/03/18 03:23:49;;;;;;;;;;;5.90;94.90;;;;;;5096376;28;19924;-71
2021/03/18 03:26:16;;;;;;;;;;;5.90;95.10;;;;;;5095534;28;19928;-71
2021/03/18 03:28:43;;;;;;;;;;;5.90;95.10;;;;;;5096088;28;20373;-70
2021/03/18 03:31:09;;;;;;;;;;;5.90;94.90;;;;;;5095278;28;19925;-70
2021/03/18 03:33:35;;;;;;;;;;;5.90;94.90;;;;;;5086578;28;20387;-70
2021/03/18 03:36:02;;;;;;;;;;;5.90;95.00;;;;;;5095454;28;19931;-70
2021/03/18 03:38:28;;;;;;;;;;;5.80;95.10;;;;;;5095438;28;19924;-71
2021/03/18 03:40:54;;;;;;;;;;;5.80;95.20;;;;;;5095879;28;19992;-71
2021/03/18 03:43:21;;;;;;;;;;;5.80;95.30;;;;;;5095299;28;19924;-71
2021/03/18 03:45:48;;;;;;;;;;;5.80;95.30;;;;;;5095003;28;19946;-71
2021/03/18 03:48:15;;;;;;;;;;;5.80;95.30;;;;;;5094228;28;19946;-71
2021/03/18 03:50:42;;;;;;;;;;;5.80;95.50;;;;;;5094441;28;19935;-71
2021/03/18 03:53:11;;;;;;;;;;;5.80;95.50;;;;;;5086298;28;19935;-71
2021/03/18 03:55:42;;;;;;;;;;;5.80;95.40;;;;;;5094882;28;19924;-71
2021/03/18 03:58:11;;;;;;;;;;;5.80;95.40;;;;;;5086171;28;19925;-71
2021/03/18 04:00:40;;;;;;;;;;;5.80;95.60;;;;;;5083892;28;19981;-71
2021/03/18 04:03:10;;;;;;;;;;;5.80;95.70;;;;;;5071002;28;19934;-71
2021/03/18 04:05:38;;;;;;;;;;;5.80;95.70;;;;;;5066535;28;19933;-71
2021/03/18 04:08:07;;;;;;;;;;;5.80;95.60;;;;;;5075095;28;19925;-71
2021/03/18 04:10:34;;;;;;;;;;;5.80;95.80;;;;;;5082819;28;20369;-71
2021/03/18 04:13:01;;;;;;;;;;;5.80;95.80;;;;;;5074985;28;20358;-71
2021/03/18 04:15:30;;;;;;;;;;;5.80;95.70;;;;;;5073518;28;19935;-70
2021/03/18 04:17:58;;;;;;;;;;;5.80;95.80;;;;;;5074978;28;19924;-71
2021/03/18 04:20:26;;;;;;;;;;;5.80;95.80;;;;;;5074146;28;19924;-71
2021/03/18 04:22:54;;;;;;;;;;;5.80;95.90;;;;;;5061386;28;19928;-72
2021/03/18 04:25:21;;;;;;;;;;;5.80;95.70;;;;;;5074335;28;19924;-71
2021/03/18 04:27:47;;;;;;;;;;;5.80;95.60;;;;;;5073553;28;19925;-69
2021/03/18 04:30:15;;;;;;;;;;;5.90;95.70;;;;;;5073754;28;19942;-69
2021/03/18 04:32:42;;;;;;;;;;;5.80;95.80;;;;;;5067383;28;19925;-69
2021/03/18 04:35:10;;;;;;;;;;;5.80;95.90;;;;;;5070254;28;20003;-69
2021/03/18 04:37:37;;;;;;;;;;;5.80;96.00;;;;;;5074188;28;19989;-69
2021/03/18 04:40:04;;;;;;;;;;;5.80;96.00;;;;;;5061282;28;20019;-69
2021/03/18 04:42:33;;;;;;;;;;;5.80;96.10;;;;;;5074590;28;19928;-69
2021/03/18 04:45:00;;;;;;;;;;;5.80;96.00;;;;;;5069930;28;19924;-68
2021/03/18 04:47:27;;;;;;;;;;;5.80;96.00;;;;;;5068943;28;19925;-69
2021/03/18 04:49:53;;;;;;;;;;;5.80;96.00;;;;;;5062405;28;20370;-69
2021/03/18 04:52:20;;;;;;;;;;;5.80;95.90;;;;;;5073570;28;19997;-69
2021/03/18 04:54:47;;;;;;;;;;;5.80;96.00;;;;;;5071848;28;20019;-68
2021/03/18 04:57:15;;;;;;;;;;;5.80;95.90;;;;;;5069837;28;20003;-68
2021/03/18 04:59:42;;;;;;;;;;;5.80;95.90;;;;;;5072267;28;19924;-68
2021/03/18 05:02:09;;;;;;;;;;;5.80;96.10;;;;;;5071935;28;19935;-68
2021/03/18 05:04:35;;;;;;;;;;;5.80;96.10;;;;;;5056860;28;19950;-68
2021/03/18 05:07:02;;;;;;;;;;;5.80;96.10;;;;;;5052880;28;19929;-69
2021/03/18 05:09:29;;;;;;;;;;;5.90;96.30;;;;;;5052568;28;20015;-68
2021/03/18 05:11:56;;;;;;;;;;;5.90;96.30;;;;;;5054233;28;19924;-69
2021/03/18 05:14:23;;;;;;;;;;;5.90;96.30;;;;;;5053862;28;19933;-69
2021/03/18 05:16:50;;;;;;;;;;;5.90;96.10;;;;;;5053032;28;20390;-69
2021/03/18 05:19:17;;;;;;;;;;;5.90;96.00;;;;;;5053472;28;20271;-68
2021/03/18 05:21:44;;;;;;;;;;;6.00;95.60;;;;;;5053923;28;19924;-69
2021/03/18 05:24:12;;;;;;;;;;;6.00;95.70;;;;;;5080619;28;19942;-68
2021/03/18 05:26:38;;;;;;;;;;;6.00;95.70;;;;;;5090178;28;19925;-70
2021/03/18 05:29:05;;;;;;;;;;;6.00;95.70;;;;;;5073710;28;19924;-69
2021/03/18 05:31:32;;;;;;;;;;;5.90;95.90;;;;;;5073660;28;19981;-70
2021/03/18 05:33:58;;;;;;;;;;;6.00;96.00;;;;;;5061745;28;19929;-68
2021/03/18 05:36:25;;;;;;;;;;;6.00;95.80;;;;;;5055986;28;19932;-69
2021/03/18 05:38:51;;;;;;;;;;;6.00;95.70;;;;;;5073846;28;20393;-68
2021/03/18 05:41:18;;;;;;;;;;;6.00;95.70;;;;;;5064747;28;19935;-69
2021/03/18 05:43:44;;;;;;;;;;;6.00;95.90;;;;;;5053654;28;19986;-68
2021/03/18 05:46:12;;;;;;;;;;;5.90;95.80;;;;;;5065102;28;19999;-67
2021/03/18 05:48:39;;;;;;;;;;;6.00;95.70;;;;;;5072686;28;19924;-68
2021/03/18 05:51:06;;;;;;;;;;;6.00;95.80;;;;;;5073513;28;19949;-68
2021/03/18 05:53:33;;;;;;;;;;;6.00;95.90;;;;;;5072786;28;19928;-69
2021/03/18 05:56:01;;;;;;;;;;;6.00;95.90;;;;;;5073092;28;19934;-68
2021/03/18 05:58:27;;;;;;;;;;;6.00;95.90;;;;;;5072986;28;19924;-68
2021/03/18 06:00:53;;;;;;;;;;;6.00;96.00;;;;;;5073202;28;19935;-68
2021/03/18 06:03:21;;;;;;;;;;;6.00;96.20;;;;;;5072883;28;20235;-68
2021/03/18 06:05:47;;;;;;;;;;;6.00;96.30;;;;;;5073227;28;19924;-68
2021/03/18 06:08:13;;;;;;;;;;;6.00;96.40;;;;;;5073130;28;19924;-69
2021/03/18 06:10:40;;;;;;;;;;;6.10;96.40;;;;;;5072820;28;19928;-69
2021/03/18 06:13:06;;;;;;;;;;;6.10;96.40;;;;;;5073150;28;19924;-69
2021/03/18 06:15:32;;;;;;;;;;;6.10;96.50;;;;;;5072644;28;20001;-68
2021/03/18 06:17:59;;;;;;;;;;;6.20;96.40;;;;;;5073079;28;19924;-67
2021/03/18 06:20:27;;;;;;;;;;;6.30;96.30;;;;;;5072641;28;20022;-68
2021/03/18 06:22:53;;;;;;;;;;;6.30;96.30;;;;;;5073013;28;19928;-69
2021/03/18 06:25:24;;;;;;;;;;;6.40;96.20;;;;;;5072619;28;19981;-68
2021/03/18 06:27:50;;;;;;;;;;;6.40;96.20;;;;;;5072934;28;19992;-67
2021/03/18 06:30:17;;;;;;;;;;;6.40;96.30;;;;;;5072817;28;19935;-68
2021/03/18 06:32:44;;;;;;;;;;;6.40;96.30;;;;;;5072619;28;20266;-68
2021/03/18 06:35:11;;;;;;;;;;;6.40;96.30;;;;;;5072584;28;19924;-68
2021/03/18 06:37:39;;;;;;;;;;;6.50;96.40;;;;;;5072471;28;19928;-69
2021/03/18 06:40:11;;;;;;;;;;;6.50;96.40;;;;;;5073063;28;19925;-69
2021/03/18 06:42:38;;;;;;;;;;;6.60;96.30;;;;;;5072247;28;19960;-68
2021/03/18 06:45:06;;;;;;;;;;;6.70;96.10;;;;;;5072854;28;19931;-68
2021/03/18 06:47:39;;;;;;;;;;;6.70;96.20;;;;;;5072315;28;20125;-69
2021/03/18 06:50:05;;;;;;;;;;;6.70;96.10;;;;;;5072599;28;19924;-69
2021/03/18 06:52:35;;;;;;;;;;;6.70;96.00;;;;;;5072298;28;20375;-69
2021/03/18 06:55:02;;;;;;;;;;;6.80;95.80;;;;;;5072591;28;19925;-69
2021/03/18 06:57:29;;;;;;;;;;;6.80;95.70;;;;;;5072041;28;19924;-68
2021/03/18 06:59:55;;;;;;;;;;;6.90;95.70;;;;;;5072625;28;19929;-68
2021/03/18 07:02:21;;;;;;;;;;;6.90;95.70;;;;;;5072751;28;19924;-68
2021/03/18 07:04:48;;;;;;;;;;;7.00;95.70;;;;;;5072357;28;21062;-69
2021/03/18 07:07:16;;;;;;;;;;;7.00;95.70;;;;;;5072456;28;19924;-69
2021/03/18 07:09:43;;;;;;;;;;;7.00;95.30;;;;;;5072055;28;19934;-69
2021/03/18 07:12:11;;;;;;;;;;;7.10;94.90;;;;;;5072352;28;19925;-70
2021/03/18 07:14:39;;;;;;;;;;;7.10;95.10;;;;;;5071746;28;19981;-70
2021/03/18 07:17:06;;;;;;;;;;;7.00;94.90;;;;;;5072475;28;19935;-69
2021/03/18 07:19:33;;;;;;;;;;;7.00;95.00;;;;;;5072001;28;20310;-69
2021/03/18 07:22:00;;;;;;;;;;;7.00;95.10;;;;;;5072516;28;19924;-69
2021/03/18 07:24:31;;;;;;;;;;;7.00;95.00;;;;;;5072038;28;19924;-69
2021/03/18 07:27:01;;;;;;;;;;;6.90;95.20;;;;;;5072297;28;19935;-69
2021/03/18 07:29:29;;;;;;;;;;;6.90;95.20;;;;;;5071673;28;19935;-67
2021/03/18 07:31:56;;;;;;;;;;;7.00;95.20;;;;;;5072527;28;20251;-68
2021/03/18 07:34:25;;;;;;;;;;;6.90;95.20;;;;;;5066789;28;19929;-68
2021/03/18 07:36:54;;;;;;;;;;;6.90;95.30;;;;;;5059995;28;20691;-68
2021/03/18 07:39:20;;;;;;;;;;;6.90;95.30;;;;;;5052619;28;19989;-69
2021/03/18 07:41:48;;;;;;;;;;;6.90;95.50;;;;;;5055362;28;20007;-69
2021/03/18 07:44:15;;;;;;;;;;;7.00;95.70;;;;;;5055925;28;20086;-69
2021/03/18 07:46:43;;;;;;;;;;;7.00;95.50;;;;;;5055300;28;19925;-69
2021/03/18 07:49:13;;;;;;;;;;;7.10;95.70;;;;;;5055781;28;19928;-69
2021/03/18 07:51:41;;;;;;;;;;;7.10;95.90;;;;;;5055275;28;19925;-68
2021/03/18 07:54:11;;;;;;;;;;;7.00;96.00;;;;;;5055769;28;19974;-70
2021/03/18 07:56:37;;;;;;;;;;;7.10;95.90;;;;;;5054719;28;20000;-68
2021/03/18 07:59:07;;;;;;;;;;;7.20;95.80;;;;;;5071783;28;20370;-68
2021/03/18 08:01:34;;;;;;;;;;;7.20;95.70;;;;;;5075290;28;19928;-68
2021/03/18 08:04:01;;;;;;;;;;;7.30;95.70;;;;;;5075629;28;19935;-68
2021/03/18 08:06:47;;;;;;;;;;;7.30;95.70;;;;;;5075293;28;19935;-68
2021/03/18 08:09:15;;;;;;;;;;;7.40;95.80;;;;;;5055428;28;19928;-68
2021/03/18 08:11:41;;;;;;;;;;;7.40;95.80;;;;;;5055649;28;20487;-68
2021/03/18 08:14:08;;;;;;;;;;;7.40;96.00;;;;;;5055202;28;19925;-68
2021/03/18 08:16:35;;;;;;;;;;;7.50;95.70;;;;;;5055106;28;20494;-68
2021/03/18 08:19:04;;;;;;;;;;;7.60;95.80;;;;;;5055252;28;19986;-68
2021/03/18 08:21:34;;;;;;;;;;;7.60;95.60;;;;;;5054662;28;20110;-68
2021/03/18 08:24:01;;;;;;;;;;;7.70;95.60;;;;;;5055238;28;19925;-69
2021/03/18 08:26:45;;;;;;;;;;;7.70;95.50;;;;;;5054647;28;19925;-69
2021/03/18 08:29:13;;;;;;;;;;;7.70;95.40;;;;;;5054710;28;20004;-68
2021/03/18 08:31:44;;;;;;;;;;;7.70;95.40;;;;;;5055107;28;20313;-69
2021/03/18 08:34:15;;;;;;;;;;;7.80;95.50;;;;;;5058587;28;19985;-69
2021/03/18 08:36:53;;;;;;;;;;;7.90;95.00;;;;;;5074685;28;20369;-68
2021/03/18 08:39:35;;;;;;;;;;;7.90;94.80;;;;;;5074587;28;20019;-68
2021/03/18 08:42:02;;;;;;;;;;;7.90;94.90;;;;;;5074807;28;20012;-68
2021/03/18 08:44:29;;;;;;;;;;;7.90;94.90;;;;;;5074307;28;19924;-68
2021/03/18 08:46:56;;;;;;;;;;;7.90;94.70;;;;;;5074694;28;19982;-68
2021/03/18 08:49:26;;;;;;;;;;;8.00;94.80;;;;;;5073930;28;19928;-68
2021/03/18 08:51:52;;;;;;;;;;;8.10;94.80;;;;;;5074735;28;19932;-69
2021/03/18 08:54:37;;;;;;;;;;;8.10;94.70;;;;;;5074513;28;19924;-69
2021/03/18 08:57:04;;;;;;;;;;;8.30;94.80;;;;;;5074548;28;20341;-69
2021/03/18 08:59:30;;;;;;;;;;;8.40;94.70;;;;;;5060901;28;19939;-70
2021/03/18 09:02:02;;;;;;;;;;;8.50;94.10;;;;;;5074541;28;19935;-68
2021/03/18 09:04:35;;;;;;;;;;;8.60;94.00;;;;;;5074146;28;19939;-68
2021/03/18 09:07:02;;;;;;;;;;;8.60;94.00;;;;;;5074223;28;20241;-69
2021/03/18 09:09:29;;;;;;;;;;;8.60;93.90;;;;;;5073813;28;19985;-69
2021/03/18 09:11:55;;;;;;;;;;;8.70;93.80;;;;;;5074483;28;19930;-69
2021/03/18 09:14:21;;;;;;;;;;;8.70;93.80;;;;;;5073672;28;19931;-69
2021/03/18 09:16:49;;;;;;;;;;;8.70;93.50;;;;;;5073982;28;19935;-69
2021/03/18 09:19:15;;;;;;;;;;;8.80;94.20;;;;;;5074106;28;19964;-69
2021/03/18 09:21:44;;;;;;;;;;;8.80;94.00;;;;;;5073730;28;19958;-69
2021/03/18 09:24:10;;;;;;;;;;;8.80;94.10;;;;;;5074108;28;20010;-69
2021/03/18 09:26:37;;;;;;;;;;;8.90;93.60;;;;;;5073365;28;19977;-68
2021/03/18 09:29:03;;;;;;;;;;;8.90;93.60;;;;;;5073984;28;20003;-68
2021/03/18 09:31:30;;;;;;;;;;;8.90;93.20;;;;;;5073465;28;19935;-68
2021/03/18 09:33:58;;;;;;;;;;;9.00;93.30;;;;;;5073779;28;19950;-68
2021/03/18 09:36:25;;;;;;;;;;;9.00;93.40;;;;;;5073024;28;19924;-69
2021/03/18 09:38:56;;;;;;;;;;;9.00;93.30;;;;;;5073805;28;19925;-69
2021/03/18 09:41:25;;;;;;;;;;;9.10;93.40;;;;;;5072762;28;19928;-70
2021/03/18 09:44:00;;;;;;;;;;;9.20;93.30;;;;;;5073792;28;19936;-69
2021/03/18 09:46:27;;;;;;;;;;;9.30;93.30;;;;;;5072729;28;19947;-68
2021/03/18 09:48:54;;;;;;;;;;;9.30;93.40;;;;;;5072887;28;20285;-69
2021/03/18 09:51:22;;;;;;;;;;;9.30;93.30;;;;;;5073403;28;20531;-68
2021/03/18 09:53:55;;;;;;;;;;;9.30;93.20;;;;;;5073086;28;19963;-68
2021/03/18 09:56:22;;;;;;;;;;;9.30;92.70;;;;;;5073232;28;19924;-68
2021/03/18 09:58:49;;;;;;;;;;;9.20;92.80;;;;;;5072971;28;21034;-68
2021/03/18 10:01:16;;;;;;;;;;;9.10;92.80;;;;;;5073359;28;20003;-68
2021/03/18 10:03:52;;;;;;;;;;;9.10;93.20;;;;;;5072312;28;19931;-68
2021/03/18 10:06:23;;;;;;;;;;;9.10;93.20;;;;;;5073210;28;19925;-68
2021/03/18 10:08:49;;;;;;;;;;;9.10;93.10;;;;;;5093162;28;19950;-69
2021/03/18 10:11:16;;;;;;;;;;;9.10;93.30;;;;;;5093700;28;20247;-69
2021/03/18 10:13:43;;;;;;;;;;;9.10;93.10;;;;;;5092879;28;19924;-69
2021/03/18 10:16:10;;;;;;;;;;;9.10;92.70;;;;;;5093120;28;19931;-69
2021/03/18 10:18:36;;;;;;;;;;;9.00;92.60;;;;;;5092959;28;19924;-69
2021/03/18 10:21:03;;;;;;;;;;;9.00;93.00;;;;;;5093158;28;20035;-68
2021/03/18 10:23:29;;;;;;;;;;;9.10;93.10;;;;;;5092857;28;20354;-69
2021/03/18 10:25:56;;;;;;;;;;;9.10;93.20;;;;;;5093368;28;20247;-69
2021/03/18 10:28:24;;;;;;;;;;;9.10;93.30;;;;;;5093172;28;19924;-69
2021/03/18 10:30:51;;;;;;;;;;;9.10;92.90;;;;;;5092599;28;19931;-69
2021/03/18 10:33:18;;;;;;;;;;;9.20;92.70;;;;;;5093372;28;19956;-69
2021/03/18 10:35:46;;;;;;;;;;;9.20;92.50;;;;;;5092453;28;19931;-67
2021/03/18 10:38:15;;;;;;;;;;;9.20;92.90;;;;;;5093064;28;20365;-68
2021/03/18 10:40:42;;;;;;;;;;;9.20;92.80;;;;;;5092555;28;19923;-68
2021/03/18 10:43:19;;;;;;;;;;;9.20;91.50;;;;;;5093043;28;19924;-69
2021/03/18 10:45:46;;;;;;;;;;;9.20;91.40;;;;;;5092484;28;20351;-69
2021/03/18 10:48:17;;;;;;;;;;;9.20;91.50;;;;;;5093111;28;19934;-69
2021/03/18 10:50:44;;;;;;;;;;;9.20;91.10;;;;;;5092453;28;19924;-68
2021/03/18 10:53:11;;;;;;;;;;;9.30;91.30;;;;;;5092961;28;19976;-68
2021/03/18 10:55:38;;;;;;;;;;;9.40;90.90;;;;;;5092604;28;20243;-68
2021/03/18 10:58:06;;;;;;;;;;;9.50;90.50;;;;;;5092851;28;19985;-69
2021/03/18 11:00:34;;;;;;;;;;;9.50;90.70;;;;;;5092144;28;19938;-69
2021/03/18 11:03:06;;;;;;;;;;;9.50;91.00;;;;;;5092966;28;19928;-68
2021/03/18 11:05:35;;;;;;;;;;;9.50;90.60;;;;;;5092300;28;19928;-67
2021/03/18 11:08:01;;;;;;;;;;;9.60;90.00;;;;;;5092722;28;19924;-69
2021/03/18 11:10:32;;;;;;;;;;;9.60;90.10;;;;;;5092856;28;19934;-68
2021/03/18 11:13:04;;;;;;;;;;;9.60;90.30;;;;;;5092254;28;19925;-69
2021/03/18 11:15:47;;;;;;;;;;;9.60;90.20;;;;;;5094821;28;20009;-68
2021/03/18 11:18:14;;;;;;;;;;;9.70;90.10;;;;;;5096888;28;19928;-68
2021/03/18 11:20:41;;;;;;;;;;;9.80;90.30;;;;;;5096002;28;20913;-68
2021/03/18 11:23:08;;;;;;;;;;;9.70;90.50;;;;;;5076272;28;19967;-68
2021/03/18 11:25:34;;;;;;;;;;;9.80;90.80;;;;;;5075747;28;19925;-68
2021/03/18 11:28:01;;;;;;;;;;;9.80;90.20;;;;;;5076134;28;19924;-68
2021/03/18 11:30:28;;;;;;;;;;;9.80;90.00;;;;;;5075784;28;19934;-68
2021/03/18 11:33:08;;;;;;;;;;;9.90;90.00;;;;;;5075817;28;19955;-68
2021/03/18 11:35:34;;;;;;;;;;;9.90;89.30;;;;;;5090883;28;19924;-69
2021/03/18 11:38:01;;;;;;;;;;;10.00;87.30;;;;;;5096174;28;19924;-68
2021/03/18 11:40:27;;;;;;;;;;;10.00;87.70;;;;;;5095748;28;19925;-69
2021/03/18 11:42:53;;;;;;;;;;;10.00;88.00;;;;;;5096204;28;19988;-69
2021/03/18 11:45:20;;;;;;;;;;;10.00;87.40;;;;;;5095605;28;19924;-68
2021/03/18 11:47:46;;;;;;;;;;;10.00;87.50;;;;;;5096065;28;19924;-69
2021/03/18 11:50:12;;;;;;;;;;;10.00;87.10;;;;;;5096047;28;19936;-68
2021/03/18 11:52:39;;;;;;;;;;;10.10;86.60;;;;;;5095573;28;19938;-68
2021/03/18 11:55:07;;;;;;;;;;;10.10;85.90;;;;;;5095998;28;19924;-68
2021/03/18 11:57:33;;;;;;;;;;;10.20;85.90;;;;;;5093196;28;19934;-68
2021/03/18 11:59:59;;;;;;;;;;;10.20;86.00;;;;;;5081318;28;19924;-68
2021/03/18 12:02:25;;;;;;;;;;;10.10;86.50;;;;;;5095586;28;19942;-68
2021/03/18 12:04:51;;;;;;;;;;;10.10;87.00;;;;;;5095699;28;19924;-68
2021/03/18 12:07:18;;;;;;;;;;;10.10;87.40;;;;;;5095558;28;19924;-68
2021/03/18 12:09:44;;;;;;;;;;;10.20;86.30;;;;;;5095576;28;19973;-68
2021/03/18 12:12:11;;;;;;;;;;;10.30;85.30;;;;;;5095846;28;19924;-68
2021/03/18 12:14:37;;;;;;;;;;;10.40;84.30;;;;;;5095030;28;19924;-68
2021/03/18 12:17:04;;;;;;;;;;;10.40;83.60;;;;;;5095408;28;19930;-68
2021/03/18 12:19:30;;;;;;;;;;;10.40;83.60;;;;;;5094841;28;19928;-68
2021/03/18 12:21:56;;;;;;;;;;;10.40;83.10;;;;;;5079320;28;20306;-68
2021/03/18 12:24:23;;;;;;;;;;;10.50;83.60;;;;;;5054676;28;19928;-68
2021/03/18 12:26:49;;;;;;;;;;;10.50;83.90;;;;;;5055505;28;19925;-68
2021/03/18 12:29:16;;;;;;;;;;;10.50;84.00;;;;;;5063600;28;19924;-69
2021/03/18 12:31:42;;;;;;;;;;;10.60;83.60;;;;;;5067319;28;19925;-68
2021/03/18 12:34:09;;;;;;;;;;;10.70;82.70;;;;;;5058221;28;19925;-68
2021/03/18 12:36:36;;;;;;;;;;;10.80;83.00;;;;;;5061704;28;19933;-68
2021/03/18 12:39:03;;;;;;;;;;;10.80;82.80;;;;;;5054662;28;20416;-68
2021/03/18 12:41:29;;;;;;;;;;;10.90;82.60;;;;;;5053733;28;19928;-68
2021/03/18 12:43:56;;;;;;;;;;;11.00;81.70;;;;;;5057362;28;19928;-68
2021/03/18 12:46:25;;;;;;;;;;;11.00;81.60;;;;;;5053895;28;19955;-70
2021/03/18 12:48:51;;;;;;;;;;;11.10;82.10;;;;;;5065071;28;20266;-69
2021/03/18 12:51:18;;;;;;;;;;;11.10;81.60;;;;;;5074364;28;19924;-69
2021/03/18 12:53:47;;;;;;;;;;;11.10;82.40;;;;;;5073397;28;19973;-69
2021/03/18 12:56:13;;;;;;;;;;;11.10;84.80;;;;;;5055120;28;19932;-69
2021/03/18 12:58:40;;;;;;;;;;;11.10;85.90;;;;;;5067209;28;19932;-68
2021/03/18 13:01:06;;;;;;;;;;;11.00;86.30;;;;;;5072439;28;20359;-68
2021/03/18 13:03:33;;;;;;;;;;;10.90;86.90;;;;;;5074352;28;19928;-68
2021/03/18 13:05:59;;;;;;;;;;;10.70;88.30;;;;;;5077864;28;19985;-69
2021/03/18 13:08:28;;;;;;;;;;;10.70;89.00;;;;;;5085679;28;19925;-69
2021/03/18 13:10:54;;;;;;;;;;;10.50;88.70;;;;;;5071441;28;19935;-69
2021/03/18 13:13:21;;;;;;;;;;;10.30;88.80;;;;;;5071096;28;19947;-68
2021/03/18 13:15:47;;;;;;;;;;;10.20;89.30;;;;;;5075917;28;19924;-70
2021/03/18 13:18:13;;;;;;;;;;;10.10;89.60;;;;;;5074029;28;19924;-69
2021/03/18 13:20:40;;;;;;;;;;;10.10;90.50;;;;;;5067261;28;20416;-69
2021/03/18 13:23:06;;;;;;;;;;;10.00;90.90;;;;;;5065485;28;19930;-69
2021/03/18 13:25:33;;;;;;;;;;;10.00;91.30;;;;;;5069749;28;19929;-68
2021/03/18 13:27:59;;;;;;;;;;;9.90;91.70;;;;;;5075341;28;19930;-68
2021/03/18 13:30:25;;;;;;;;;;;9.90;92.20;;;;;;5074673;28;20419;-69
2021/03/18 13:32:52;;;;;;;;;;;9.90;92.60;;;;;;5078656;28;19934;-70
2021/03/18 13:35:19;;;;;;;;;;;9.90;93.30;;;;;;5071447;28;19989;-70
2021/03/18 13:37:46;;;;;;;;;;;9.90;93.70;;;;;;5067202;28;19932;-69
2021/03/18 13:40:13;;;;;;;;;;;10.00;93.00;;;;;;5078307;28;19938;-69
2021/03/18 13:42:39;;;;;;;;;;;10.00;92.90;;;;;;5058939;28;19925;-69
2021/03/18 13:45:06;;;;;;;;;;;10.10;91.80;;;;;;5073680;28;20269;-69
2021/03/18 13:47:33;;;;;;;;;;;10.20;90.60;;;;;;5070293;28;19928;-68
2021/03/18 13:49:59;;;;;;;;;;;10.20;90.50;;;;;;5073297;28;19925;-68
2021/03/18 13:52:26;;;;;;;;;;;10.20;90.40;;;;;;5079486;28;19924;-69
2021/03/18 13:54:53;;;;;;;;;;;10.30;90.30;;;;;;5088594;28;19935;-69
2021/03/18 13:57:19;;;;;;;;;;;10.30;89.60;;;;;;5073597;28;19976;-69
2021/03/18 13:59:45;;;;;;;;;;;10.30;89.10;;;;;;5056401;28;19924;-69
2021/03/18 14:02:11;;;;;;;;;;;10.30;87.00;;;;;;5074679;28;19932;-68
2021/03/18 14:04:37;;;;;;;;;;;10.40;85.90;;;;;;5058780;28;19931;-69
2021/03/18 14:07:07;;;;;;;;;;;10.40;84.00;;;;;;5070362;28;19924;-68
2021/03/18 14:09:33;;;;;;;;;;;10.40;83.50;;;;;;5065727;28;20041;-67
2021/03/18 14:12:00;;;;;;;;;;;10.50;82.40;;;;;;5069408;28;19957;-69
2021/03/18 14:14:26;;;;;;;;;;;10.50;80.80;;;;;;5072874;28;19932;-69
2021/03/18 14:16:52;;;;;;;;;;;10.50;80.30;;;;;;5069166;28;19940;-69
2021/03/18 14:19:19;;;;;;;;;;;10.50;79.90;;;;;;5082337;28;19924;-69
2021/03/18 14:21:45;;;;;;;;;;;10.60;75.60;;;;;;5073994;28;19987;-68
2021/03/18 14:24:11;;;;;;;;;;;10.60;76.00;;;;;;5067505;28;20370;-69
2021/03/18 14:26:37;;;;;;;;;;;10.60;75.00;;;;;;5065559;28;19930;-69
2021/03/18 14:29:04;;;;;;;;;;;10.60;74.80;;;;;;5066657;28;20166;-70
2021/03/18 14:31:31;;;;;;;;;;;10.60;73.40;;;;;;5053984;28;19924;-69